CheckWX is a tool to help pilots better visualize weather data.  It is not intended as a substitute for an official pre-flight weather briefing.

16:59:22 UTC

KFWA TAF
Fort Wayne International Airport
Fort Wayne, Indiana, USA
KFWA 191120Z 1912/2012 12006KT P6SM FEW250

Sep-19@
12:00 UTC

Sep-19 @ 12:00 UTC

Sep-20@
12:00 UTC

Sep-20 @ 12:00 UTC

KFWA 191120Z 1912/2012 12006KT P6SM FEW250
Wind
  • 120° at 6 KTS
Cloud Levels
  • Few at 25,000' AGL